Time;durP1;ratioP1;P1;durP2;ratioP2;P2;SDS_P1;SDS_P2;PMS_P1;PMS_P2;Temp;Humidity;BMP_temperature;BMP_pressure;BME280_temperature;BME280_humidity;BME280_pressure;Samples;Min_cycle;Max_cycle;Signal;HPM_P1;HPM_P2
2022/04/22 00:02:22;;;;;;;3.55;2.50;;;8.00;99.90;;;;;;4970727;28;20271;-73
2022/04/22 00:04:49;;;;;;;3.05;2.85;;;8.00;99.90;;;;;;4970833;28;20232;-73
2022/04/22 00:07:16;;;;;;;2.42;2.22;;;8.00;99.90;;;;;;4971095;28;20209;-72
2022/04/22 00:09:42;;;;;;;3.05;2.42;;;7.90;99.90;;;;;;4970055;28;20601;-71
2022/04/22 00:12:10;;;;;;;6.65;2.63;;;7.90;99.90;;;;;;4971172;28;20574;-72
2022/04/22 00:14:37;;;;;;;2.40;2.17;;;7.90;99.90;;;;;;4969944;28;20244;-72
2022/04/22 00:17:04;;;;;;;3.22;2.45;;;7.80;99.90;;;;;;4970750;28;20204;-72
2022/04/22 00:19:33;;;;;;;2.53;2.42;;;7.80;99.90;;;;;;4970483;28;20216;-72
2022/04/22 00:21:59;;;;;;;2.72;2.53;;;7.80;99.90;;;;;;4970482;28;20239;-72
2022/04/22 00:24:26;;;;;;;2.92;2.72;;;7.70;99.90;;;;;;4970455;28;20236;-72
2022/04/22 00:26:53;;;;;;;6.35;3.40;;;7.70;99.90;;;;;;4970574;28;20255;-72
2022/04/22 00:29:19;;;;;;;2.55;2.45;;;7.70;99.90;;;;;;4966254;28;20308;-71
2022/04/22 00:31:46;;;;;;;2.47;2.25;;;7.70;99.90;;;;;;4969969;28;20263;-71
2022/04/22 00:34:13;;;;;;;2.25;2.10;;;7.60;99.90;;;;;;4970460;28;20302;-71
2022/04/22 00:36:41;;;;;;;2.45;2.35;;;7.60;99.90;;;;;;4970145;28;20243;-73
2022/04/22 00:39:07;;;;;;;3.75;2.55;;;7.60;99.90;;;;;;4970332;28;20205;-73
2022/04/22 00:41:34;;;;;;;3.45;2.20;;;7.50;99.90;;;;;;4970030;28;20236;-73
2022/04/22 00:44:01;;;;;;;2.60;2.35;;;7.50;99.90;;;;;;4971224;28;20216;-73
2022/04/22 00:46:27;;;;;;;2.53;2.42;;;7.50;99.90;;;;;;4970091;28;20566;-73
2022/04/22 00:48:54;;;;;;;2.60;2.40;;;7.40;99.90;;;;;;4971107;28;20657;-73
2022/04/22 00:51:22;;;;;;;2.45;2.35;;;7.40;99.90;;;;;;4969832;28;20200;-74
2022/04/22 00:53:52;;;;;;;2.50;2.40;;;7.40;99.90;;;;;;4970891;28;20337;-73
2022/04/22 00:56:20;;;;;;;3.30;2.97;;;7.40;99.90;;;;;;4970140;28;20267;-73
2022/04/22 00:58:47;;;;;;;2.70;2.50;;;7.30;99.90;;;;;;4970546;28;20208;-72
2022/04/22 01:01:14;;;;;;;2.40;2.30;;;7.30;99.90;;;;;;4963242;28;20684;-72
2022/04/22 01:09:47;;;;;;;2.10;2.00;;;7.20;99.90;;;;;;4970475;28;20200;-73
2022/04/22 01:12:01;;;;;;;3.20;3.00;;;7.10;99.90;;;;;;4944715;28;20204;-73
2022/04/22 01:14:29;;;;;;;3.33;3.20;;;7.10;99.90;;;;;;4969482;28;20252;-73
2022/04/22 01:16:55;;;;;;;2.85;2.67;;;7.10;99.90;;;;;;4970246;28;20211;-73
2022/04/22 01:19:22;;;;;;;3.97;2.83;;;7.00;99.90;;;;;;4970040;28;20510;-72
2022/04/22 01:21:50;;;;;;;2.58;2.45;;;7.00;99.90;;;;;;4969361;28;20237;-73
2022/04/22 01:24:17;;;;;;;3.33;2.60;;;6.90;99.90;;;;;;4970235;28;20606;-72
2022/04/22 01:26:44;;;;;;;3.88;3.17;;;6.90;99.90;;;;;;4969587;28;20695;-73
2022/04/22 01:29:12;;;;;;;3.38;3.17;;;6.90;99.90;;;;;;4970389;28;20216;-72
2022/04/22 01:31:39;;;;;;;3.28;2.97;;;6.80;99.90;;;;;;4968994;28;20747;-72
2022/04/22 01:34:05;;;;;;;4.00;3.35;;;6.80;99.90;;;;;;4970296;28;20233;-72
2022/04/22 01:36:32;;;;;;;3.08;3.00;;;6.80;99.90;;;;;;4969646;28;20251;-71
2022/04/22 01:39:00;;;;;;;3.47;3.17;;;6.70;99.90;;;;;;4970288;28;20205;-72
2022/04/22 01:41:29;;;;;;;3.72;3.10;;;6.70;99.90;;;;;;4969202;28;20595;-71
2022/04/22 01:43:56;;;;;;;2.80;2.60;;;6.70;99.90;;;;;;4970173;28;20218;-72
2022/04/22 01:46:22;;;;;;;3.70;3.40;;;6.60;99.90;;;;;;4969268;28;20748;-72
2022/04/22 01:48:49;;;;;;;3.45;3.25;;;6.60;99.90;;;;;;4969988;28;20665;-72
2022/04/22 01:51:16;;;;;;;4.00;2.97;;;6.60;99.90;;;;;;4969900;28;20205;-72
2022/04/22 01:53:43;;;;;;;6.22;3.42;;;6.60;99.90;;;;;;4973633;28;20205;-71
2022/04/22 01:56:11;;;;;;;4.38;2.60;;;6.50;99.90;;;;;;4973414;28;20212;-72
2022/04/22 01:58:38;;;;;;;3.63;3.33;;;6.50;99.90;;;;;;4973596;28;20275;-72
2022/04/22 02:01:04;;;;;;;3.10;2.90;;;6.50;99.90;;;;;;4972142;28;20228;-72
2022/04/22 02:03:31;;;;;;;3.05;2.80;;;6.50;99.90;;;;;;4972886;28;20209;-72
2022/04/22 02:05:58;;;;;;;7.75;3.17;;;6.40;99.90;;;;;;4973071;28;20240;-72
2022/04/22 02:08:24;;;;;;;2.88;2.70;;;6.40;99.90;;;;;;4973345;28;20220;-73
2022/04/22 02:10:51;;;;;;;2.65;2.55;;;6.40;99.90;;;;;;4972758;28;20213;-72
2022/04/22 02:13:20;;;;;;;3.10;3.00;;;6.40;99.90;;;;;;4973227;28;20216;-72
2022/04/22 02:15:47;;;;;;;5.57;4.22;;;6.40;99.90;;;;;;4972520;28;20232;-72
2022/04/22 02:18:14;;;;;;;3.47;3.17;;;6.30;99.90;;;;;;4973541;28;20260;-72
2022/04/22 02:20:40;;;;;;;4.25;3.85;;;6.30;99.90;;;;;;4972349;28;20228;-73
2022/04/22 02:23:07;;;;;;;3.75;3.58;;;6.30;99.90;;;;;;4972935;28;20211;-72
2022/04/22 02:25:34;;;;;;;3.47;3.28;;;6.30;99.90;;;;;;4972770;28;20286;-73
2022/04/22 02:30:46;;;;;;;3.28;3.17;;;6.20;99.90;;;;;;4964454;28;20556;-74
2022/04/22 02:33:14;;;;;;;5.50;3.60;;;6.20;99.90;;;;;;4972774;28;20308;-74
2022/04/22 02:35:41;;;;;;;4.40;4.07;;;6.20;99.90;;;;;;4973024;28;20228;-74
2022/04/22 02:38:08;;;;;;;3.42;3.15;;;6.10;99.90;;;;;;4972904;28;20590;-73
2022/04/22 02:46:19;;;;;;;5.85;3.92;;;6.10;99.90;;;;;;4912377;29;20232;-73
2022/04/22 02:48:46;;;;;;;3.53;3.33;;;6.00;99.90;;;;;;4935586;28;20205;-73
2022/04/22 02:51:12;;;;;;;3.63;3.42;;;6.00;99.90;;;;;;4953053;28;20619;-73
2022/04/22 02:53:39;;;;;;;4.20;3.90;;;6.00;99.90;;;;;;4971130;28;20212;-73
2022/04/22 02:56:07;;;;;;;3.90;3.50;;;6.00;99.90;;;;;;4972760;28;20291;-72
2022/04/22 02:58:35;;;;;;;4.40;4.00;;;5.90;99.90;;;;;;4974582;28;20737;-73
2022/04/22 03:01:02;;;;;;;3.15;2.95;;;5.90;99.90;;;;;;4969483;28;20254;-73
2022/04/22 03:03:31;;;;;;;6.90;3.60;;;5.90;99.90;;;;;;4977124;28;20307;-72
2022/04/22 03:05:57;;;;;;;3.70;3.40;;;5.90;99.90;;;;;;4976849;28;20331;-73
2022/04/22 03:08:24;;;;;;;4.65;4.35;;;5.80;99.90;;;;;;4978053;28;20275;-73
2022/04/22 03:10:51;;;;;;;4.70;4.10;;;5.80;99.90;;;;;;4978174;28;20212;-72
2022/04/22 03:13:18;;;;;;;4.50;3.83;;;5.80;99.90;;;;;;4982060;28;20251;-72
2022/04/22 03:15:45;;;;;;;3.45;3.25;;;5.80;99.90;;;;;;4979075;28;20239;-73
2022/04/22 03:18:12;;;;;;;5.00;4.70;;;5.70;99.90;;;;;;4980375;28;20208;-73
2022/04/22 03:20:40;;;;;;;4.20;3.90;;;5.70;99.90;;;;;;4978051;28;20216;-74
2022/04/22 03:23:07;;;;;;;4.30;4.00;;;5.70;99.90;;;;;;4978478;28;20216;-74
2022/04/22 03:25:34;;;;;;;4.32;3.63;;;5.70;99.90;;;;;;4977308;28;20232;-73
2022/04/22 03:28:03;;;;;;;4.95;4.65;;;5.60;99.90;;;;;;4972458;28;20236;-72
2022/04/22 03:30:30;;;;;;;5.40;5.00;;;5.60;99.90;;;;;;4970736;28;20262;-73
2022/04/22 03:32:56;;;;;;;4.70;4.40;;;5.60;99.90;;;;;;4971742;28;20204;-73
2022/04/22 03:35:23;;;;;;;4.90;4.60;;;5.60;99.90;;;;;;4971694;28;20232;-72
2022/04/22 03:37:51;;;;;;;7.82;5.38;;;5.50;99.90;;;;;;4971683;28;20208;-72
2022/04/22 03:40:18;;;;;;;5.07;4.47;;;5.50;99.90;;;;;;4971054;28;20205;-73
2022/04/22 03:42:44;;;;;;;7.20;5.10;;;5.50;99.90;;;;;;4971423;28;20254;-73
2022/04/22 03:45:11;;;;;;;7.50;4.93;;;5.40;99.90;;;;;;4971028;28;20232;-73
2022/04/22 03:47:38;;;;;;;5.68;5.20;;;5.50;99.90;;;;;;4971722;28;20324;-72
2022/04/22 03:50:06;;;;;;;5.47;4.85;;;5.40;99.90;;;;;;4967436;28;20314;-72
2022/04/22 03:52:32;;;;;;;5.40;5.00;;;5.40;99.90;;;;;;4970967;28;20606;-72
2022/04/22 03:55:00;;;;;;;4.60;4.30;;;5.40;99.90;;;;;;4971526;28;20611;-74
2022/04/22 04:00:12;;;;;;;5.88;4.22;;;5.30;99.90;;;;;;4970087;28;20223;-71
2022/04/22 04:02:39;;;;;;;6.43;4.93;;;5.30;99.90;;;;;;4970954;28;20603;-72
2022/04/22 04:05:06;;;;;;;6.30;5.70;;;5.30;99.90;;;;;;4971004;28;20797;-74
2022/04/22 04:07:33;;;;;;;7.75;5.60;;;5.30;99.90;;;;;;4971294;28;20209;-73
2022/04/22 04:18:13;;;;;;;8.85;5.63;;;5.30;99.90;;;;;;4971145;28;20207;-73
2022/04/22 04:23:24;;;;;;;6.80;4.80;;;5.30;99.90;;;;;;4970945;28;20215;-72
2022/04/22 04:25:52;;;;;;;6.13;5.57;;;5.30;99.90;;;;;;4971071;28;20236;-72
2022/04/22 04:28:19;;;;;;;5.45;4.97;;;5.30;99.90;;;;;;4966958;28;20304;-74
2022/04/22 04:30:46;;;;;;;5.50;5.00;;;5.30;99.90;;;;;;4969261;28;20216;-73
2022/04/22 04:33:13;;;;;;;5.85;5.13;;;5.30;99.90;;;;;;4970695;28;20287;-73
2022/04/22 04:35:44;;;;;;;6.00;5.45;;;5.30;99.90;;;;;;4970697;28;20278;-73
2022/04/22 04:38:10;;;;;;;6.50;5.88;;;5.40;99.90;;;;;;4970805;28;20216;-73
2022/04/22 04:40:37;;;;;;;7.75;5.20;;;5.40;99.90;;;;;;4969821;28;20674;-74
2022/04/22 04:43:06;;;;;;;6.72;4.90;;;5.40;99.90;;;;;;4970626;28;20294;-73
2022/04/22 04:45:32;;;;;;;5.60;5.15;;;5.50;99.90;;;;;;4969787;28;20251;-74
2022/04/22 04:47:59;;;;;;;6.55;5.72;;;5.50;99.90;;;;;;4970723;28;20215;-73
2022/04/22 04:50:26;;;;;;;6.10;5.50;;;5.50;99.90;;;;;;4969972;28;20208;-73
2022/04/22 04:52:53;;;;;;;8.13;5.82;;;5.60;99.90;;;;;;4970882;28;20291;-73
2022/04/22 04:55:20;;;;;;;6.38;5.75;;;5.60;99.90;;;;;;4971139;28;20319;-72
2022/04/22 04:57:48;;;;;;;6.50;5.68;;;5.70;99.90;;;;;;4971875;28;20212;-73
2022/04/22 05:00:18;;;;;;;5.78;5.13;;;5.70;99.90;;;;;;4965648;28;20664;-73
2022/04/22 05:02:45;;;;;;;7.05;5.20;;;5.80;99.90;;;;;;4989563;28;20326;-72
2022/04/22 05:05:12;;;;;;;5.05;4.65;;;5.90;99.90;;;;;;4989645;28;20231;-72
2022/04/22 05:07:48;;;;;;;8.00;5.80;;;5.90;99.90;;;;;;4989789;28;20569;-72
2022/04/22 05:10:15;;;;;;;5.55;5.05;;;5.90;99.90;;;;;;4987735;28;20243;-72
2022/04/22 05:12:42;;;;;;;4.60;4.25;;;6.00;99.90;;;;;;4970345;28;20842;-72
2022/04/22 05:15:10;;;;;;;6.85;5.50;;;6.10;99.90;;;;;;4969792;28;20255;-72
2022/04/22 05:17:39;;;;;;;4.85;4.55;;;6.10;99.90;;;;;;4970421;28;20216;-72
2022/04/22 05:20:07;;;;;;;6.07;5.35;;;6.20;99.90;;;;;;4970165;28;20216;-72
2022/04/22 05:22:34;;;;;;;6.20;4.55;;;6.20;99.90;;;;;;4966599;28;20220;-72
2022/04/22 05:25:00;;;;;;;5.35;4.85;;;6.20;99.90;;;;;;4971558;28;20579;-72
2022/04/22 05:27:27;;;;;;;8.63;5.45;;;6.20;99.90;;;;;;4974533;28;20216;-73
2022/04/22 05:32:40;;;;;;;5.10;4.30;;;6.30;99.90;;;;;;4974191;28;20208;-72
2022/04/22 05:35:09;;;;;;;7.43;5.57;;;6.40;99.90;;;;;;4974891;28;20722;-75
2022/04/22 05:37:47;;;;;;;5.60;5.10;;;6.40;99.90;;;;;;4975267;28;20213;-73
2022/04/22 05:40:15;;;;;;;7.07;5.45;;;6.50;99.90;;;;;;4973373;28;20268;-73
2022/04/22 05:42:42;;;;;;;6.32;5.72;;;6.50;99.90;;;;;;4973749;28;20758;-72
2022/04/22 05:45:10;;;;;;;6.32;5.53;;;6.50;99.90;;;;;;4972844;28;20284;-73
2022/04/22 05:47:39;;;;;;;7.47;4.95;;;6.50;99.90;;;;;;4974097;28;20208;-73
2022/04/22 05:50:07;;;;;;;10.75;6.13;;;6.60;99.90;;;;;;4969382;28;20621;-72
2022/04/22 05:52:35;;;;;;;10.98;6.25;;;6.60;99.90;;;;;;4973405;28;20238;-72
2022/04/22 05:55:03;;;;;;;6.25;4.80;;;6.60;99.90;;;;;;4973787;28;20229;-72
2022/04/22 05:57:31;;;;;;;6.07;5.50;;;6.50;99.90;;;;;;4973652;28;20832;-72
2022/04/22 05:59:58;;;;;;;6.35;5.75;;;6.50;99.90;;;;;;4972385;28;20295;-72
2022/04/22 06:02:25;;;;;;;11.13;6.63;;;6.60;99.90;;;;;;4973042;28;20279;-72
2022/04/22 06:04:54;;;;;;;7.15;6.45;;;6.60;99.90;;;;;;4973475;28;20240;-72
2022/04/22 06:07:21;;;;;;;6.72;5.68;;;6.70;99.90;;;;;;4973729;28;20701;-72
2022/04/22 06:12:32;;;;;;;6.65;6.05;;;6.60;99.90;;;;;;4973156;28;20204;-72
2022/04/22 06:15:00;;;;;;;5.95;5.35;;;6.70;99.90;;;;;;4972851;28;20237;-72
2022/04/22 06:17:28;;;;;;;11.63;6.05;;;6.60;99.90;;;;;;4973393;28;20876;-72
2022/04/22 06:19:56;;;;;;;6.28;5.68;;;6.60;99.90;;;;;;4972696;28;20303;-71
2022/04/22 06:22:23;;;;;;;7.97;6.45;;;6.70;99.90;;;;;;4972792;28;20231;-72
2022/04/22 06:24:50;;;;;;;6.45;5.43;;;6.70;99.90;;;;;;4973021;28;20286;-72
2022/04/22 06:27:24;;;;;;;6.95;6.35;;;6.80;99.90;;;;;;4973372;28;20212;-72
2022/04/22 06:29:51;;;;;;;6.95;6.35;;;6.80;99.90;;;;;;4967849;28;20217;-72
2022/04/22 06:32:18;;;;;;;6.75;5.55;;;6.80;99.90;;;;;;4972564;28;20252;-72
2022/04/22 06:34:46;;;;;;;10.02;7.30;;;6.90;99.90;;;;;;4972959;28;20236;-72
2022/04/22 06:37:15;;;;;;;8.20;6.03;;;6.90;99.90;;;;;;4971712;28;20559;-73
2022/04/22 06:47:57;;;;;;;8.50;6.85;;;7.20;99.90;;;;;;4983207;28;20211;-74
2022/04/22 06:50:24;;;;;;;11.10;7.45;;;7.30;99.90;;;;;;4952954;28;20206;-73
2022/04/22 06:52:53;;;;;;;9.95;6.60;;;7.40;99.90;;;;;;4968623;28;20592;-72
2022/04/22 06:55:20;;;;;;;11.00;6.45;;;7.40;99.90;;;;;;4972934;28;20281;-72
2022/04/22 06:57:50;;;;;;;6.97;5.80;;;7.50;99.90;;;;;;4980705;28;20212;-73
2022/04/22 07:00:18;;;;;;;7.78;6.10;;;7.50;99.90;;;;;;4971900;28;20200;-72
2022/04/22 07:02:45;;;;;;;7.13;5.50;;;7.50;99.90;;;;;;4972954;28;20324;-73
2022/04/22 07:05:13;;;;;;;6.78;5.93;;;7.50;99.90;;;;;;4972131;28;20286;-73
2022/04/22 07:07:40;;;;;;;7.43;6.68;;;7.60;99.90;;;;;;4972196;28;20239;-72
2022/04/22 07:10:09;;;;;;;6.55;5.60;;;7.60;99.90;;;;;;4971377;28;20197;-72
2022/04/22 07:12:36;;;;;;;4.95;4.55;;;7.60;99.90;;;;;;4971891;28;20658;-72
2022/04/22 07:15:04;;;;;;;7.85;5.80;;;7.70;99.90;;;;;;4971104;28;20224;-72
2022/04/22 07:17:32;;;;;;;7.03;6.38;;;7.80;99.90;;;;;;4971517;28;20623;-71
2022/04/22 07:20:00;;;;;;;6.72;6.20;;;7.90;99.90;;;;;;4970880;28;20205;-73
2022/04/22 07:22:27;;;;;;;8.38;5.55;;;8.00;99.90;;;;;;4970369;28;20225;-74
2022/04/22 07:24:54;;;;;;;8.65;5.95;;;8.30;99.90;;;;;;4970340;28;20631;-73
2022/04/22 07:27:26;;;;;;;6.90;6.30;;;8.60;99.90;;;;;;4972874;28;20224;-73
2022/04/22 07:29:54;;;;;;;6.38;5.82;;;8.80;99.90;;;;;;4956204;28;20209;-73
2022/04/22 07:32:21;;;;;;;6.30;5.70;;;8.90;99.90;;;;;;4961899;28;20211;-74
2022/04/22 07:34:48;;;;;;;6.18;5.68;;;9.00;99.90;;;;;;4970658;28;20275;-73
2022/04/22 07:37:15;;;;;;;5.70;5.20;;;8.90;99.90;;;;;;4971737;28;20833;-73
2022/04/22 07:39:42;;;;;;;5.65;5.25;;;8.80;99.90;;;;;;4971235;28;20298;-73
2022/04/22 07:42:14;;;;;;;8.00;7.32;;;8.80;99.90;;;;;;4983291;28;20732;-74
2022/04/22 07:47:30;;;;;;;6.60;6.00;;;8.60;99.90;;;;;;4970990;28;20211;-72
2022/04/22 07:49:57;;;;;;;6.40;5.80;;;8.50;99.90;;;;;;4966934;28;20319;-72
2022/04/22 07:52:24;;;;;;;6.13;5.55;;;8.50;99.90;;;;;;4971663;28;20271;-73
2022/04/22 07:54:50;;;;;;;5.82;5.22;;;8.60;99.90;;;;;;4968856;28;20753;-74
2022/04/22 07:57:17;;;;;;;10.75;6.68;;;8.60;99.90;;;;;;4970363;28;20338;-71
2022/04/22 07:59:45;;;;;;;7.82;6.80;;;8.60;99.90;;;;;;4968896;28;20536;-71
2022/04/22 08:02:12;;;;;;;8.00;6.70;;;8.60;99.90;;;;;;4970583;28;20616;-70
2022/04/22 08:04:38;;;;;;;7.40;6.78;;;8.70;99.90;;;;;;4970074;28;20284;-70
2022/04/22 08:07:07;;;;;;;5.97;5.53;;;8.80;99.90;;;;;;4971101;28;20203;-69
2022/04/22 08:09:34;;;;;;;7.72;6.25;;;8.90;99.90;;;;;;4970774;28;20315;-69
2022/04/22 08:12:01;;;;;;;7.72;6.82;;;8.90;99.90;;;;;;4971012;28;20215;-69
2022/04/22 08:14:28;;;;;;;7.53;6.90;;;9.00;99.90;;;;;;4970293;28;20307;-69
2022/04/22 08:16:56;;;;;;;10.77;7.45;;;9.20;99.90;;;;;;4970343;28;20386;-69
2022/04/22 08:19:23;;;;;;;8.15;7.20;;;9.30;99.90;;;;;;4969746;28;20204;-70
2022/04/22 08:21:50;;;;;;;7.50;6.78;;;9.40;99.90;;;;;;4970542;28;20219;-69
2022/04/22 08:24:16;;;;;;;8.30;7.50;;;9.50;99.90;;;;;;4970548;28;20228;-69
2022/04/22 08:26:43;;;;;;;8.40;7.55;;;9.70;99.90;;;;;;4970393;28;20584;-70
2022/04/22 08:29:09;;;;;;;7.60;7.00;;;9.80;99.90;;;;;;4970217;28;20829;-70
2022/04/22 08:31:36;;;;;;;8.32;7.55;;;9.90;99.90;;;;;;4968194;28;20271;-68
2022/04/22 08:34:04;;;;;;;9.40;6.90;;;10.00;99.90;;;;;;4969786;28;20259;-69
2022/04/22 08:36:31;;;;;;;8.75;6.15;;;10.10;99.90;;;;;;4970735;28;20213;-69
2022/04/22 08:38:59;;;;;;;7.53;6.53;;;10.20;99.90;;;;;;4965304;28;20201;-69
2022/04/22 08:41:27;;;;;;;9.82;6.97;;;10.30;99.90;;;;;;4966703;28;20223;-70
2022/04/22 08:43:56;;;;;;;8.02;7.32;;;10.40;99.90;;;;;;4987192;28;20306;-69
2022/04/22 08:51:55;;;;;;;7.95;6.28;;;10.80;99.90;;;;;;4969390;28;20359;-69
2022/04/22 08:54:23;;;;;;;8.30;6.88;;;10.80;99.90;;;;;;4959872;28;20751;-69
2022/04/22 08:56:52;;;;;;;8.60;7.70;;;10.90;99.90;;;;;;4970877;28;20208;-69
2022/04/22 08:59:19;;;;;;;9.30;8.30;;;10.90;99.90;;;;;;4969912;28;20204;-68
2022/04/22 09:01:46;;;;;;;8.68;7.93;;;10.90;99.90;;;;;;4970484;28;20611;-68
2022/04/22 09:04:14;;;;;;;7.85;7.15;;;10.90;99.90;;;;;;4975817;28;20230;-68
2022/04/22 09:06:41;;;;;;;6.88;6.38;;;11.00;99.90;;;;;;4991478;28;20466;-69
2022/04/22 09:09:08;;;;;;;8.52;7.25;;;11.10;99.90;;;;;;4979799;28;20295;-69
2022/04/22 09:11:38;;;;;;;8.07;7.28;;;11.20;99.90;;;;;;4970741;28;20209;-68
2022/04/22 09:14:06;;;;;;;7.78;7.05;;;11.30;99.90;;;;;;4971260;28;20248;-69
2022/04/22 09:16:33;;;;;;;9.32;8.48;;;11.40;99.90;;;;;;4969988;28;20575;-70
2022/04/22 09:19:01;;;;;;;9.20;8.38;;;11.50;99.90;;;;;;4969711;28;20271;-69
2022/04/22 09:21:30;;;;;;;9.05;8.25;;;11.50;99.90;;;;;;4982388;28;20692;-69
2022/04/22 09:23:57;;;;;;;9.00;7.88;;;11.60;99.90;;;;;;4974105;28;20267;-69
2022/04/22 09:26:25;;;;;;;9.70;8.52;;;11.70;99.90;;;;;;4970792;28;20279;-69
2022/04/22 09:28:58;;;;;;;8.88;8.07;;;11.80;99.90;;;;;;4970137;28;20204;-70
2022/04/22 09:31:26;;;;;;;7.80;6.85;;;11.90;99.90;;;;;;4969167;28;20208;-70
2022/04/22 09:33:53;;;;;;;8.00;6.93;;;12.10;99.90;;;;;;4970875;28;20201;-70
2022/04/22 09:44:55;;;;;;;6.60;6.10;;;12.70;99.90;;;;;;4966078;28;20610;-69
2022/04/22 09:47:25;;;;;;;6.90;6.33;;;13.00;99.90;;;;;;4970290;28;20467;-70
2022/04/22 09:49:52;;;;;;;8.23;7.43;;;13.10;99.90;;;;;;4968420;28;20537;-68
2022/04/22 09:52:25;;;;;;;7.63;6.07;;;13.30;99.90;;;;;;4970057;28;20460;-68
2022/04/22 09:54:57;;;;;;;6.87;6.17;;;13.50;99.90;;;;;;4968959;28;21540;-68
2022/04/22 09:57:24;;;;;;;7.03;6.30;;;13.40;99.90;;;;;;4966563;28;20469;-68
2022/04/22 09:59:52;;;;;;;8.23;6.07;;;13.50;99.90;;;;;;4968371;28;20464;-70
2022/04/22 10:02:24;;;;;;;8.90;5.50;;;13.50;99.90;;;;;;4968467;28;20526;-68
2022/04/22 10:04:53;;;;;;;6.50;6.00;;;13.70;99.90;;;;;;4968102;28;20548;-68
2022/04/22 10:07:22;;;;;;;7.27;6.67;;;13.90;99.90;;;;;;4968152;28;20474;-69
2022/04/22 10:09:53;;;;;;;8.67;6.70;;;14.10;99.90;;;;;;4967731;28;21219;-68
2022/04/22 10:12:24;;;;;;;5.80;5.27;;;14.30;99.90;;;;;;4971228;28;20466;-68
2022/04/22 10:14:54;;;;;;;6.23;5.63;;;14.40;99.90;;;;;;4971204;28;20506;-68
2022/04/22 10:17:21;;;;;;;5.80;5.30;;;14.50;99.90;;;;;;4972348;28;20472;-68
2022/04/22 10:19:49;;;;;;;7.23;6.07;;;14.80;99.90;;;;;;4971741;28;20471;-68
2022/04/22 10:22:17;;;;;;;6.00;5.40;;;15.00;99.90;;;;;;4973243;28;21159;-69
2022/04/22 10:24:45;;;;;;;6.63;6.23;;;15.30;99.90;;;;;;4971985;28;20496;-68
2022/04/22 10:27:13;;;;;;;7.83;5.33;;;15.40;99.90;;;;;;4972832;28;20472;-71
2022/04/22 10:29:43;;;;;;;10.17;5.73;;;15.30;99.90;;;;;;4972908;28;21391;-68
2022/04/22 10:32:12;;;;;;;4.80;4.40;;;15.10;99.90;;;;;;4977076;28;20554;-68
2022/04/22 10:34:40;;;;;;;5.23;4.73;;;15.30;99.90;;;;;;4972861;28;20475;-68
2022/04/22 10:37:15;;;;;;;6.17;5.60;;;15.40;99.90;;;;;;4972597;28;20558;-70
2022/04/22 10:39:41;;;;;;;5.33;4.93;;;15.50;99.90;;;;;;4964421;28;20555;-68
2022/04/22 10:42:15;;;;;;;4.17;3.97;;;15.70;99.90;;;;;;4972909;28;20464;-68
2022/04/22 10:47:44;;;;;;;4.70;4.40;;;16.10;99.90;;;;;;4976141;28;20463;-69
2022/04/22 10:50:25;;;;;;;5.37;4.90;;;16.20;99.90;;;;;;4986317;28;20492;-68
2022/04/22 10:53:02;;;;;;;4.73;4.43;;;16.50;99.90;;;;;;4992276;28;20502;-69
2022/04/22 10:55:31;;;;;;;4.50;4.10;;;16.60;99.90;;;;;;4980844;28;20486;-69
2022/04/22 10:58:23;;;;;;;4.50;4.20;;;16.70;99.90;;;;;;4973253;28;20538;-69
2022/04/22 11:00:53;;;;;;;4.60;4.20;;;16.80;99.90;;;;;;4970757;28;20520;-69
2022/04/22 11:03:23;;;;;;;4.47;4.17;;;16.80;99.90;;;;;;4974848;28;20492;-69
2022/04/22 11:05:51;;;;;;;4.30;4.00;;;16.70;99.90;;;;;;4973429;28;20503;-67
2022/04/22 11:08:30;;;;;;;4.87;4.57;;;16.60;99.90;;;;;;4975498;28;20490;-68
2022/04/22 11:11:17;;;;;;;9.03;3.93;;;16.50;99.90;;;;;;4973713;28;20562;-69
2022/04/22 11:13:45;;;;;;;4.83;4.13;;;16.30;99.90;;;;;;4973584;28;20530;-68
2022/04/22 11:16:26;;;;;;;4.43;3.80;;;16.30;99.90;;;;;;4974874;28;20945;-69
2022/04/22 11:19:11;;;;;;;5.27;4.00;;;16.20;99.90;;;;;;4972441;28;20930;-68
2022/04/22 11:21:42;;;;;;;5.10;3.63;;;16.20;99.90;;;;;;4971381;28;20467;-69
2022/04/22 11:24:14;;;;;;;4.23;3.67;;;16.00;99.90;;;;;;4971395;28;20487;-68
2022/04/22 11:26:40;;;;;;;5.37;3.90;;;15.90;99.90;;;;;;4971882;28;20881;-68
2022/04/22 11:29:08;;;;;;;4.17;3.73;;;16.00;99.90;;;;;;4972873;28;20460;-69
2022/04/22 11:31:37;;;;;;;5.30;3.70;;;15.90;99.90;;;;;;4985003;28;20467;-68
2022/04/22 11:34:08;;;;;;;4.10;3.73;;;16.00;99.90;;;;;;4971449;28;21035;-69
2022/04/22 11:36:43;;;;;;;4.27;3.93;;;15.90;99.90;;;;;;4969643;28;20472;-68
2022/04/22 11:39:17;;;;;;;4.13;3.93;;;15.80;99.90;;;;;;4971406;28;20468;-68
2022/04/22 11:41:57;;;;;;;4.10;3.70;;;15.90;99.90;;;;;;4975059;28;20842;-69
2022/04/22 11:44:24;;;;;;;4.20;3.83;;;15.90;99.90;;;;;;4977654;28;20487;-69
2022/04/22 11:46:52;;;;;;;4.20;3.90;;;16.00;99.90;;;;;;4965121;28;20514;-68
2022/04/22 11:49:19;;;;;;;7.43;4.13;;;16.10;99.90;;;;;;4971263;28;20463;-70
2022/04/22 11:51:46;;;;;;;3.27;3.07;;;16.20;99.90;;;;;;4969913;28;20472;-70
2022/04/22 11:54:21;;;;;;;3.90;3.70;;;16.50;99.90;;;;;;4971489;28;20815;-68
2022/04/22 11:56:49;;;;;;;3.37;3.17;;;16.60;99.90;;;;;;4970032;28;20463;-69
2022/04/22 11:59:18;;;;;;;3.17;3.07;;;16.60;99.90;;;;;;4971014;28;20510;-68
2022/04/22 12:10:07;;;;;;;2.60;2.50;;;16.90;99.90;;;;;;4970344;28;20502;-69
2022/04/22 12:12:34;;;;;;;6.70;3.60;;;16.80;99.90;;;;;;4971028;28;20456;-70
2022/04/22 12:15:02;;;;;;;4.03;3.63;;;16.80;99.90;;;;;;4970359;28;21160;-70
2022/04/22 12:17:28;;;;;;;3.93;2.60;;;16.70;99.90;;;;;;4968120;28;20502;-69
2022/04/22 12:19:57;;;;;;;3.23;3.03;;;16.60;99.90;;;;;;4970435;28;20467;-69
2022/04/22 12:22:24;;;;;;;5.13;3.20;;;16.70;99.90;;;;;;4970709;28;20526;-69
2022/04/22 12:25:07;;;;;;;2.80;2.70;;;16.60;99.90;;;;;;4970853;28;20491;-69
2022/04/22 12:27:34;;;;;;;5.37;3.40;;;16.50;99.90;;;;;;4969223;28;20475;-68
2022/04/22 12:30:02;;;;;;;2.83;2.63;;;16.40;99.90;;;;;;4968618;28;20554;-69
2022/04/22 12:32:31;;;;;;;3.63;3.33;;;16.30;99.90;;;;;;4970769;28;20953;-68
2022/04/22 12:35:12;;;;;;;5.37;3.50;;;16.20;99.90;;;;;;4969885;28;20507;-69
2022/04/22 12:37:43;;;;;;;4.23;3.83;;;16.20;99.90;;;;;;4970494;28;20563;-68
2022/04/22 12:40:11;;;;;;;4.33;3.60;;;16.20;99.90;;;;;;4962443;28;20472;-68
2022/04/22 12:42:39;;;;;;;4.47;4.07;;;16.20;99.90;;;;;;4970558;28;20899;-69
2022/04/22 12:53:28;;;;;;;2.77;2.67;;;16.10;99.90;;;;;;4969645;28;20471;-68
2022/04/22 12:56:02;;;;;;;5.30;3.80;;;16.10;99.90;;;;;;4969848;28;20480;-68
2022/04/22 12:58:28;;;;;;;4.97;4.60;;;16.10;99.90;;;;;;4969926;28;20476;-70
2022/04/22 13:00:55;;;;;;;3.87;3.57;;;16.10;99.90;;;;;;4975199;28;20460;-69
2022/04/22 13:03:22;;;;;;;4.07;3.80;;;16.10;99.90;;;;;;4976335;28;21049;-69
2022/04/22 13:05:50;;;;;;;4.50;4.30;;;16.40;99.90;;;;;;4969999;28;20487;-68
2022/04/22 13:08:17;;;;;;;4.03;3.80;;;16.70;99.90;;;;;;4970705;28;20468;-68
2022/04/22 13:10:44;;;;;;;4.90;4.33;;;16.70;99.90;;;;;;4969469;28;20467;-69
2022/04/22 13:13:11;;;;;;;4.77;3.77;;;16.60;99.90;;;;;;4971359;28;20459;-69
2022/04/22 13:15:38;;;;;;;3.63;3.53;;;16.50;99.90;;;;;;4969679;28;20480;-69
2022/04/22 13:18:05;;;;;;;3.43;3.23;;;16.30;99.90;;;;;;4970606;28;21056;-68
2022/04/22 13:20:31;;;;;;;3.67;3.37;;;16.20;99.90;;;;;;4969396;28;20464;-68
2022/04/22 13:23:00;;;;;;;3.80;3.60;;;16.00;99.90;;;;;;4969484;28;20464;-68
2022/04/22 13:25:26;;;;;;;3.43;3.20;;;16.00;99.90;;;;;;4969790;28;20910;-69
2022/04/22 13:27:54;;;;;;;4.60;4.20;;;15.90;99.90;;;;;;4967500;28;20510;-68
2022/04/22 13:30:21;;;;;;;3.60;3.40;;;15.80;99.90;;;;;;4966244;28;20515;-70
2022/04/22 13:32:47;;;;;;;3.57;3.37;;;15.80;99.90;;;;;;4970230;28;20475;-68
2022/04/22 13:35:14;;;;;;;4.05;3.10;;;15.70;99.90;;;;;;4969591;28;20458;-71
2022/04/22 13:37:41;;;;;;;4.83;4.43;;;15.70;99.90;;;;;;4970315;28;20291;-69
2022/04/22 13:40:10;;;;;;;6.10;3.83;;;15.70;99.90;;;;;;4967653;28;20500;-69
2022/04/22 13:42:37;;;;;;;3.83;3.43;;;15.70;99.90;;;;;;4969955;28;20528;-69
2022/04/22 13:53:18;;;;;;;4.37;4.07;;;15.60;99.90;;;;;;4973407;28;20543;-68
2022/04/22 13:55:46;;;;;;;4.10;3.80;;;15.70;99.90;;;;;;4972145;28;20574;-70
2022/04/22 13:58:13;;;;;;;6.87;4.50;;;15.70;99.90;;;;;;4972045;28;20475;-71
2022/04/22 14:00:40;;;;;;;3.80;3.50;;;15.70;99.90;;;;;;4968819;28;20475;-69
2022/04/22 14:03:07;;;;;;;4.67;4.30;;;15.60;99.90;;;;;;4973341;28;21046;-69
2022/04/22 14:05:34;;;;;;;4.27;3.90;;;15.50;99.90;;;;;;4973002;28;20496;-69
2022/04/22 14:08:00;;;;;;;3.83;3.70;;;15.50;99.90;;;;;;4966685;28;20467;-69
2022/04/22 14:10:27;;;;;;;3.93;3.73;;;15.50;99.90;;;;;;4990488;28;20467;-68
2022/04/22 14:12:56;;;;;;;6.27;3.90;;;15.70;99.90;;;;;;4993107;28;20463;-68
2022/04/22 14:15:25;;;;;;;7.33;3.37;;;15.80;99.90;;;;;;4992299;28;20805;-68
2022/04/22 14:17:52;;;;;;;5.23;4.40;;;16.00;99.90;;;;;;4993181;28;20466;-68
2022/04/22 14:20:19;;;;;;;3.70;3.50;;;16.20;99.90;;;;;;4992222;28;20529;-68
2022/04/22 14:22:45;;;;;;;3.63;3.17;;;16.30;99.90;;;;;;4992868;28;20497;-67
2022/04/22 14:25:12;;;;;;;4.40;4.10;;;16.40;99.90;;;;;;4992658;28;20605;-68